sensor_id;sensor_type;location;lat;lon;timestamp;P1;durP1;ratioP1;P2;durP2;ratioP2
15629;SDS011;7914;50.842;0.166;2022-08-26T00:01:59;16.83;;;15.17;;
15629;SDS011;7914;50.842;0.166;2022-08-26T00:04:25;16.47;;;14.87;;
15629;SDS011;7914;50.842;0.166;2022-08-26T00:06:54;16.70;;;15.17;;
15629;SDS011;7914;50.842;0.166;2022-08-26T00:09:20;17.00;;;15.33;;
15629;SDS011;7914;50.842;0.166;2022-08-26T00:11:47;17.27;;;15.60;;
15629;SDS011;7914;50.842;0.166;2022-08-26T00:14:13;17.03;;;15.50;;
15629;SDS011;7914;50.842;0.166;2022-08-26T00:16:40;16.93;;;15.43;;
15629;SDS011;7914;50.842;0.166;2022-08-26T00:19:06;17.43;;;15.63;;
15629;SDS011;7914;50.842;0.166;2022-08-26T00:21:32;17.83;;;16.03;;
15629;SDS011;7914;50.842;0.166;2022-08-26T00:23:59;16.57;;;14.97;;
15629;SDS011;7914;50.842;0.166;2022-08-26T00:26:24;20.63;;;15.53;;
15629;SDS011;7914;50.842;0.166;2022-08-26T00:28:50;18.60;;;16.47;;
15629;SDS011;7914;50.842;0.166;2022-08-26T00:31:16;16.40;;;14.77;;
15629;SDS011;7914;50.842;0.166;2022-08-26T00:33:42;16.47;;;14.73;;
15629;SDS011;7914;50.842;0.166;2022-08-26T00:36:08;17.23;;;15.53;;
15629;SDS011;7914;50.842;0.166;2022-08-26T00:38:34;16.67;;;15.13;;
15629;SDS011;7914;50.842;0.166;2022-08-26T00:41:01;16.27;;;14.77;;
15629;SDS011;7914;50.842;0.166;2022-08-26T00:43:28;16.80;;;15.10;;
15629;SDS011;7914;50.842;0.166;2022-08-26T00:45:58;18.13;;;15.07;;
15629;SDS011;7914;50.842;0.166;2022-08-26T00:48:31;16.60;;;14.97;;
15629;SDS011;7914;50.842;0.166;2022-08-26T00:51:02;17.67;;;15.50;;
15629;SDS011;7914;50.842;0.166;2022-08-26T00:53:33;17.93;;;15.53;;
15629;SDS011;7914;50.842;0.166;2022-08-26T00:56:05;19.63;;;15.63;;
15629;SDS011;7914;50.842;0.166;2022-08-26T00:58:39;17.67;;;15.57;;
15629;SDS011;7914;50.842;0.166;2022-08-26T01:01:07;17.43;;;15.60;;
15629;SDS011;7914;50.842;0.166;2022-08-26T01:03:34;17.60;;;15.77;;
15629;SDS011;7914;50.842;0.166;2022-08-26T01:06:02;17.80;;;15.90;;
15629;SDS011;7914;50.842;0.166;2022-08-26T01:08:30;19.03;;;16.70;;
15629;SDS011;7914;50.842;0.166;2022-08-26T01:10:56;17.80;;;15.93;;
15629;SDS011;7914;50.842;0.166;2022-08-26T01:13:24;17.53;;;15.83;;
15629;SDS011;7914;50.842;0.166;2022-08-26T01:15:52;17.80;;;16.07;;
15629;SDS011;7914;50.842;0.166;2022-08-26T01:18:20;16.60;;;14.73;;
15629;SDS011;7914;50.842;0.166;2022-08-26T01:23:42;16.07;;;14.50;;
15629;SDS011;7914;50.842;0.166;2022-08-26T01:26:16;18.83;;;14.67;;
15629;SDS011;7914;50.842;0.166;2022-08-26T01:28:49;21.10;;;15.47;;
15629;SDS011;7914;50.842;0.166;2022-08-26T01:31:19;17.80;;;15.87;;
15629;SDS011;7914;50.842;0.166;2022-08-26T01:33:55;16.77;;;15.07;;
15629;SDS011;7914;50.842;0.166;2022-08-26T01:36:26;16.80;;;15.03;;
15629;SDS011;7914;50.842;0.166;2022-08-26T01:38:52;17.03;;;15.33;;
15629;SDS011;7914;50.842;0.166;2022-08-26T01:41:18;21.43;;;15.47;;
15629;SDS011;7914;50.842;0.166;2022-08-26T01:43:44;17.57;;;15.90;;
15629;SDS011;7914;50.842;0.166;2022-08-26T01:46:12;16.77;;;15.17;;
15629;SDS011;7914;50.842;0.166;2022-08-26T01:48:38;18.33;;;16.00;;
15629;SDS011;7914;50.842;0.166;2022-08-26T01:51:06;21.37;;;15.37;;
15629;SDS011;7914;50.842;0.166;2022-08-26T01:53:35;19.03;;;15.90;;
15629;SDS011;7914;50.842;0.166;2022-08-26T01:56:01;19.77;;;16.70;;
15629;SDS011;7914;50.842;0.166;2022-08-26T01:58:30;18.37;;;16.43;;
15629;SDS011;7914;50.842;0.166;2022-08-26T02:01:00;18.87;;;16.77;;
15629;SDS011;7914;50.842;0.166;2022-08-26T02:03:27;17.77;;;16.07;;
15629;SDS011;7914;50.842;0.166;2022-08-26T02:06:01;17.97;;;16.13;;
15629;SDS011;7914;50.842;0.166;2022-08-26T02:08:36;19.13;;;16.70;;
15629;SDS011;7914;50.842;0.166;2022-08-26T02:11:08;18.27;;;16.27;;
15629;SDS011;7914;50.842;0.166;2022-08-26T02:13:42;18.20;;;16.17;;
15629;SDS011;7914;50.842;0.166;2022-08-26T02:16:10;21.47;;;16.73;;
15629;SDS011;7914;50.842;0.166;2022-08-26T02:18:39;20.83;;;16.80;;
15629;SDS011;7914;50.842;0.166;2022-08-26T02:21:07;20.23;;;16.40;;
15629;SDS011;7914;50.842;0.166;2022-08-26T02:23:35;23.23;;;16.40;;
15629;SDS011;7914;50.842;0.166;2022-08-26T02:26:06;19.60;;;17.37;;
15629;SDS011;7914;50.842;0.166;2022-08-26T02:28:51;18.90;;;16.87;;
15629;SDS011;7914;50.842;0.166;2022-08-26T02:31:20;21.77;;;17.07;;
15629;SDS011;7914;50.842;0.166;2022-08-26T02:33:46;18.60;;;16.70;;
15629;SDS011;7914;50.842;0.166;2022-08-26T02:36:17;22.53;;;16.87;;
15629;SDS011;7914;50.842;0.166;2022-08-26T02:38:46;18.90;;;16.97;;
15629;SDS011;7914;50.842;0.166;2022-08-26T02:41:12;21.03;;;17.17;;
15629;SDS011;7914;50.842;0.166;2022-08-26T02:43:38;19.57;;;16.80;;
15629;SDS011;7914;50.842;0.166;2022-08-26T02:46:04;18.97;;;17.03;;
15629;SDS011;7914;50.842;0.166;2022-08-26T02:48:30;21.37;;;17.67;;
15629;SDS011;7914;50.842;0.166;2022-08-26T02:50:57;20.13;;;16.97;;
15629;SDS011;7914;50.842;0.166;2022-08-26T02:53:26;19.70;;;17.70;;
15629;SDS011;7914;50.842;0.166;2022-08-26T02:55:53;20.90;;;17.23;;
15629;SDS011;7914;50.842;0.166;2022-08-26T02:58:18;20.13;;;17.30;;
15629;SDS011;7914;50.842;0.166;2022-08-26T03:00:44;22.37;;;17.13;;
15629;SDS011;7914;50.842;0.166;2022-08-26T03:03:12;19.80;;;17.23;;
15629;SDS011;7914;50.842;0.166;2022-08-26T03:05:39;19.90;;;17.67;;
15629;SDS011;7914;50.842;0.166;2022-08-26T03:08:06;18.40;;;16.50;;
15629;SDS011;7914;50.842;0.166;2022-08-26T03:10:36;19.63;;;16.40;;
15629;SDS011;7914;50.842;0.166;2022-08-26T03:13:02;18.57;;;16.67;;
15629;SDS011;7914;50.842;0.166;2022-08-26T03:15:28;22.50;;;17.17;;
15629;SDS011;7914;50.842;0.166;2022-08-26T03:17:54;21.37;;;16.33;;
15629;SDS011;7914;50.842;0.166;2022-08-26T03:20:20;17.90;;;15.97;;
15629;SDS011;7914;50.842;0.166;2022-08-26T03:22:46;19.10;;;16.50;;
15629;SDS011;7914;50.842;0.166;2022-08-26T03:25:13;17.87;;;16.03;;
15629;SDS011;7914;50.842;0.166;2022-08-26T03:27:40;18.53;;;16.33;;
15629;SDS011;7914;50.842;0.166;2022-08-26T03:30:07;20.63;;;17.00;;
15629;SDS011;7914;50.842;0.166;2022-08-26T03:32:52;17.67;;;15.63;;
15629;SDS011;7914;50.842;0.166;2022-08-26T03:35:18;18.23;;;15.87;;
15629;SDS011;7914;50.842;0.166;2022-08-26T03:37:43;19.07;;;15.73;;
15629;SDS011;7914;50.842;0.166;2022-08-26T03:40:09;18.47;;;16.57;;
15629;SDS011;7914;50.842;0.166;2022-08-26T03:42:36;23.07;;;16.73;;
15629;SDS011;7914;50.842;0.166;2022-08-26T03:45:04;20.00;;;16.27;;
15629;SDS011;7914;50.842;0.166;2022-08-26T03:47:32;17.97;;;16.10;;
15629;SDS011;7914;50.842;0.166;2022-08-26T03:49:58;18.70;;;16.80;;
15629;SDS011;7914;50.842;0.166;2022-08-26T03:52:24;19.47;;;16.80;;
15629;SDS011;7914;50.842;0.166;2022-08-26T03:54:50;20.43;;;16.23;;
15629;SDS011;7914;50.842;0.166;2022-08-26T03:57:16;19.73;;;17.23;;
15629;SDS011;7914;50.842;0.166;2022-08-26T03:59:42;19.43;;;16.17;;
15629;SDS011;7914;50.842;0.166;2022-08-26T04:02:08;19.17;;;17.23;;
15629;SDS011;7914;50.842;0.166;2022-08-26T04:04:33;21.23;;;17.70;;
15629;SDS011;7914;50.842;0.166;2022-08-26T04:06:59;19.20;;;17.20;;
15629;SDS011;7914;50.842;0.166;2022-08-26T04:09:25;19.73;;;17.73;;
15629;SDS011;7914;50.842;0.166;2022-08-26T04:11:51;21.77;;;16.90;;
15629;SDS011;7914;50.842;0.166;2022-08-26T04:14:19;21.03;;;18.40;;
15629;SDS011;7914;50.842;0.166;2022-08-26T04:16:48;23.90;;;17.07;;
15629;SDS011;7914;50.842;0.166;2022-08-26T04:19:14;20.03;;;17.83;;
15629;SDS011;7914;50.842;0.166;2022-08-26T04:21:41;23.03;;;17.83;;
15629;SDS011;7914;50.842;0.166;2022-08-26T04:24:08;21.47;;;18.13;;
15629;SDS011;7914;50.842;0.166;2022-08-26T04:26:35;19.73;;;17.63;;
15629;SDS011;7914;50.842;0.166;2022-08-26T04:29:05;19.13;;;17.13;;
15629;SDS011;7914;50.842;0.166;2022-08-26T04:31:34;20.37;;;18.07;;
15629;SDS011;7914;50.842;0.166;2022-08-26T04:34:00;20.83;;;17.80;;
15629;SDS011;7914;50.842;0.166;2022-08-26T04:36:27;22.10;;;19.33;;
15629;SDS011;7914;50.842;0.166;2022-08-26T04:38:53;21.27;;;18.90;;
15629;SDS011;7914;50.842;0.166;2022-08-26T04:41:19;21.40;;;19.20;;
15629;SDS011;7914;50.842;0.166;2022-08-26T04:43:45;22.00;;;19.63;;
15629;SDS011;7914;50.842;0.166;2022-08-26T04:46:15;22.30;;;19.90;;
15629;SDS011;7914;50.842;0.166;2022-08-26T04:48:43;25.67;;;22.13;;
15629;SDS011;7914;50.842;0.166;2022-08-26T04:51:09;24.20;;;21.57;;
15629;SDS011;7914;50.842;0.166;2022-08-26T04:53:36;22.83;;;20.30;;
15629;SDS011;7914;50.842;0.166;2022-08-26T04:56:02;25.47;;;22.73;;
15629;SDS011;7914;50.842;0.166;2022-08-26T04:58:28;27.50;;;22.60;;
15629;SDS011;7914;50.842;0.166;2022-08-26T05:00:54;24.50;;;21.47;;
15629;SDS011;7914;50.842;0.166;2022-08-26T05:03:21;27.57;;;22.80;;
15629;SDS011;7914;50.842;0.166;2022-08-26T05:05:48;28.37;;;22.67;;
15629;SDS011;7914;50.842;0.166;2022-08-26T05:08:15;25.67;;;21.93;;
15629;SDS011;7914;50.842;0.166;2022-08-26T05:10:43;28.40;;;23.33;;
15629;SDS011;7914;50.842;0.166;2022-08-26T05:13:20;31.70;;;24.03;;
15629;SDS011;7914;50.842;0.166;2022-08-26T05:15:49;29.27;;;25.13;;
15629;SDS011;7914;50.842;0.166;2022-08-26T05:18:16;31.33;;;25.53;;
15629;SDS011;7914;50.842;0.166;2022-08-26T05:20:46;28.90;;;24.30;;
15629;SDS011;7914;50.842;0.166;2022-08-26T05:23:13;30.10;;;25.13;;
15629;SDS011;7914;50.842;0.166;2022-08-26T05:25:42;29.03;;;24.50;;
15629;SDS011;7914;50.842;0.166;2022-08-26T05:28:09;30.40;;;25.53;;
15629;SDS011;7914;50.842;0.166;2022-08-26T05:30:37;28.60;;;24.93;;
15629;SDS011;7914;50.842;0.166;2022-08-26T05:33:04;28.67;;;24.53;;
15629;SDS011;7914;50.842;0.166;2022-08-26T05:35:31;30.00;;;24.40;;
15629;SDS011;7914;50.842;0.166;2022-08-26T05:37:58;29.57;;;24.10;;
15629;SDS011;7914;50.842;0.166;2022-08-26T05:40:25;29.03;;;24.00;;
15629;SDS011;7914;50.842;0.166;2022-08-26T05:42:52;35.60;;;26.17;;
15629;SDS011;7914;50.842;0.166;2022-08-26T05:45:18;30.63;;;24.93;;
15629;SDS011;7914;50.842;0.166;2022-08-26T05:47:46;30.97;;;24.07;;
15629;SDS011;7914;50.842;0.166;2022-08-26T05:50:11;28.67;;;23.83;;
15629;SDS011;7914;50.842;0.166;2022-08-26T05:52:37;31.30;;;24.47;;
15629;SDS011;7914;50.842;0.166;2022-08-26T05:55:03;31.33;;;23.63;;
15629;SDS011;7914;50.842;0.166;2022-08-26T05:57:29;26.07;;;22.47;;
15629;SDS011;7914;50.842;0.166;2022-08-26T05:59:55;29.27;;;24.27;;
15629;SDS011;7914;50.842;0.166;2022-08-26T06:02:21;28.43;;;23.53;;
15629;SDS011;7914;50.842;0.166;2022-08-26T06:04:47;26.43;;;21.60;;
15629;SDS011;7914;50.842;0.166;2022-08-26T06:07:13;26.57;;;22.37;;
15629;SDS011;7914;50.842;0.166;2022-08-26T06:09:41;26.23;;;21.90;;
15629;SDS011;7914;50.842;0.166;2022-08-26T06:12:07;25.07;;;22.30;;
15629;SDS011;7914;50.842;0.166;2022-08-26T06:14:32;25.83;;;22.30;;
15629;SDS011;7914;50.842;0.166;2022-08-26T06:17:00;22.83;;;20.43;;
15629;SDS011;7914;50.842;0.166;2022-08-26T06:19:25;23.80;;;21.00;;
15629;SDS011;7914;50.842;0.166;2022-08-26T06:21:51;23.33;;;19.87;;
15629;SDS011;7914;50.842;0.166;2022-08-26T06:24:18;22.77;;;20.43;;
15629;SDS011;7914;50.842;0.166;2022-08-26T06:27:03;21.50;;;19.30;;
15629;SDS011;7914;50.842;0.166;2022-08-26T06:29:34;20.73;;;18.53;;
15629;SDS011;7914;50.842;0.166;2022-08-26T06:32:00;20.30;;;18.20;;
15629;SDS011;7914;50.842;0.166;2022-08-26T06:34:28;19.83;;;17.83;;
15629;SDS011;7914;50.842;0.166;2022-08-26T06:36:54;21.50;;;17.03;;
15629;SDS011;7914;50.842;0.166;2022-08-26T06:39:22;20.40;;;18.20;;
15629;SDS011;7914;50.842;0.166;2022-08-26T06:41:48;19.60;;;17.50;;
15629;SDS011;7914;50.842;0.166;2022-08-26T06:44:15;21.03;;;18.50;;
15629;SDS011;7914;50.842;0.166;2022-08-26T06:46:41;20.40;;;18.10;;
15629;SDS011;7914;50.842;0.166;2022-08-26T06:49:07;21.97;;;18.93;;
15629;SDS011;7914;50.842;0.166;2022-08-26T06:51:34;21.33;;;18.43;;
15629;SDS011;7914;50.842;0.166;2022-08-26T06:54:01;21.47;;;19.27;;
15629;SDS011;7914;50.842;0.166;2022-08-26T06:56:35;23.43;;;19.63;;
15629;SDS011;7914;50.842;0.166;2022-08-26T06:59:07;21.50;;;18.73;;
15629;SDS011;7914;50.842;0.166;2022-08-26T07:01:36;21.20;;;18.13;;
15629;SDS011;7914;50.842;0.166;2022-08-26T07:04:05;20.40;;;18.23;;
15629;SDS011;7914;50.842;0.166;2022-08-26T07:06:34;20.07;;;18.03;;
15629;SDS011;7914;50.842;0.166;2022-08-26T07:09:03;20.93;;;18.43;;
15629;SDS011;7914;50.842;0.166;2022-08-26T07:11:30;20.00;;;17.90;;
15629;SDS011;7914;50.842;0.166;2022-08-26T07:13:57;19.67;;;17.63;;
15629;SDS011;7914;50.842;0.166;2022-08-26T07:16:24;20.37;;;18.27;;
15629;SDS011;7914;50.842;0.166;2022-08-26T07:18:51;20.33;;;17.60;;
15629;SDS011;7914;50.842;0.166;2022-08-26T07:21:18;19.07;;;17.07;;
15629;SDS011;7914;50.842;0.166;2022-08-26T07:23:44;18.70;;;16.80;;
15629;SDS011;7914;50.842;0.166;2022-08-26T07:26:12;18.53;;;16.63;;
15629;SDS011;7914;50.842;0.166;2022-08-26T07:28:49;18.73;;;16.80;;
15629;SDS011;7914;50.842;0.166;2022-08-26T07:31:17;18.87;;;16.97;;
15629;SDS011;7914;50.842;0.166;2022-08-26T07:33:45;17.87;;;16.07;;
15629;SDS011;7914;50.842;0.166;2022-08-26T07:36:12;19.63;;;16.33;;
15629;SDS011;7914;50.842;0.166;2022-08-26T07:38:39;17.03;;;15.27;;
15629;SDS011;7914;50.842;0.166;2022-08-26T07:41:06;17.90;;;16.10;;
15629;SDS011;7914;50.842;0.166;2022-08-26T07:43:33;18.53;;;16.63;;
15629;SDS011;7914;50.842;0.166;2022-08-26T07:46:00;17.17;;;15.53;;
15629;SDS011;7914;50.842;0.166;2022-08-26T07:48:26;18.10;;;16.37;;
15629;SDS011;7914;50.842;0.166;2022-08-26T07:50:52;18.73;;;15.67;;
15629;SDS011;7914;50.842;0.166;2022-08-26T07:53:18;18.20;;;16.40;;
15629;SDS011;7914;50.842;0.166;2022-08-26T07:55:45;18.50;;;16.60;;
15629;SDS011;7914;50.842;0.166;2022-08-26T07:58:11;16.20;;;14.32;;
15629;SDS011;7914;50.842;0.166;2022-08-26T08:00:37;17.50;;;15.90;;
15629;SDS011;7914;50.842;0.166;2022-08-26T08:03:03;16.33;;;12.35;;
15629;SDS011;7914;50.842;0.166;2022-08-26T08:05:30;15.32;;;13.73;;
15629;SDS011;7914;50.842;0.166;2022-08-26T08:08:00;15.07;;;13.47;;
15629;SDS011;7914;50.842;0.166;2022-08-26T08:10:28;14.27;;;12.97;;
15629;SDS011;7914;50.842;0.166;2022-08-26T08:12:55;14.67;;;13.17;;
15629;SDS011;7914;50.842;0.166;2022-08-26T08:15:23;15.20;;;13.60;;
15629;SDS011;7914;50.842;0.166;2022-08-26T08:17:53;15.10;;;13.53;;
15629;SDS011;7914;50.842;0.166;2022-08-26T08:20:20;16.37;;;14.67;;
15629;SDS011;7914;50.842;0.166;2022-08-26T08:22:46;15.77;;;14.13;;
15629;SDS011;7914;50.842;0.166;2022-08-26T08:25:12;14.63;;;13.10;;
15629;SDS011;7914;50.842;0.166;2022-08-26T08:27:39;13.50;;;12.20;;
15629;SDS011;7914;50.842;0.166;2022-08-26T08:30:06;13.63;;;12.23;;
15629;SDS011;7914;50.842;0.166;2022-08-26T08:32:34;12.40;;;11.20;;
15629;SDS011;7914;50.842;0.166;2022-08-26T08:35:02;11.93;;;10.83;;
15629;SDS011;7914;50.842;0.166;2022-08-26T08:37:32;12.90;;;11.63;;
15629;SDS011;7914;50.842;0.166;2022-08-26T08:39:58;12.03;;;10.80;;
15629;SDS011;7914;50.842;0.166;2022-08-26T08:42:40;14.80;;;11.17;;
15629;SDS011;7914;50.842;0.166;2022-08-26T08:45:09;14.17;;;10.17;;
15629;SDS011;7914;50.842;0.166;2022-08-26T08:47:44;10.70;;;9.60;;
15629;SDS011;7914;50.842;0.166;2022-08-26T08:55:50;7.95;;;7.25;;
15629;SDS011;7914;50.842;0.166;2022-08-26T08:58:42;9.40;;;7.72;;
15629;SDS011;7914;50.842;0.166;2022-08-26T09:01:31;8.13;;;7.43;;
15629;SDS011;7914;50.842;0.166;2022-08-26T09:04:22;8.23;;;6.18;;
15629;SDS011;7914;50.842;0.166;2022-08-26T09:07:07;7.20;;;5.70;;
15629;SDS011;7914;50.842;0.166;2022-08-26T09:09:38;5.90;;;5.25;;
15629;SDS011;7914;50.842;0.166;2022-08-26T09:12:12;7.07;;;6.15;;
15629;SDS011;7914;50.842;0.166;2022-08-26T09:14:49;6.13;;;5.53;;
15629;SDS011;7914;50.842;0.166;2022-08-26T09:22:48;4.82;;;4.30;;
15629;SDS011;7914;50.842;0.166;2022-08-26T09:25:14;5.60;;;4.60;;
15629;SDS011;7914;50.842;0.166;2022-08-26T09:27:47;4.65;;;3.72;;
15629;SDS011;7914;50.842;0.166;2022-08-26T09:30:20;6.88;;;3.90;;
15629;SDS011;7914;50.842;0.166;2022-08-26T09:33:01;4.63;;;3.70;;
15629;SDS011;7914;50.842;0.166;2022-08-26T09:35:40;4.72;;;3.50;;
15629;SDS011;7914;50.842;0.166;2022-08-26T09:41:01;3.53;;;2.90;;
15629;SDS011;7914;50.842;0.166;2022-08-26T09:43:29;4.95;;;2.90;;
15629;SDS011;7914;50.842;0.166;2022-08-26T09:46:17;3.75;;;2.40;;
15629;SDS011;7914;50.842;0.166;2022-08-26T09:48:47;3.20;;;2.63;;
15629;SDS011;7914;50.842;0.166;2022-08-26T09:58:49;3.63;;;2.47;;
15629;SDS011;7914;50.842;0.166;2022-08-26T10:01:24;3.83;;;2.45;;
15629;SDS011;7914;50.842;0.166;2022-08-26T10:06:58;4.60;;;2.70;;
15629;SDS011;7914;50.842;0.166;2022-08-26T10:09:25;4.28;;;2.63;;
15629;SDS011;7914;50.842;0.166;2022-08-26T10:11:55;3.28;;;2.25;;
15629;SDS011;7914;50.842;0.166;2022-08-26T10:14:29;3.90;;;2.47;;
15629;SDS011;7914;50.842;0.166;2022-08-26T10:17:08;3.22;;;2.50;;
15629;SDS011;7914;50.842;0.166;2022-08-26T10:19:55;3.60;;;2.50;;
15629;SDS011;7914;50.842;0.166;2022-08-26T10:22:37;4.10;;;2.40;;
15629;SDS011;7914;50.842;0.166;2022-08-26T10:25:15;8.30;;;2.47;;
15629;SDS011;7914;50.842;0.166;2022-08-26T10:27:46;3.22;;;2.88;;
15629;SDS011;7914;50.842;0.166;2022-08-26T10:30:44;4.97;;;2.53;;
15629;SDS011;7914;50.842;0.166;2022-08-26T10:33:14;3.20;;;2.67;;
15629;SDS011;7914;50.842;0.166;2022-08-26T10:35:43;3.33;;;2.67;;
15629;SDS011;7914;50.842;0.166;2022-08-26T10:38:19;5.20;;;2.60;;
15629;SDS011;7914;50.842;0.166;2022-08-26T10:41:00;3.35;;;2.55;;
15629;SDS011;7914;50.842;0.166;2022-08-26T10:43:45;2.72;;;2.47;;
15629;SDS011;7914;50.842;0.166;2022-08-26T10:46:35;4.07;;;2.40;;
15629;SDS011;7914;50.842;0.166;2022-08-26T10:49:09;3.65;;;2.10;;
15629;SDS011;7914;50.842;0.166;2022-08-26T10:52:00;3.35;;;2.10;;
15629;SDS011;7914;50.842;0.166;2022-08-26T10:54:35;3.15;;;2.28;;
15629;SDS011;7914;50.842;0.166;2022-08-26T10:57:08;4.10;;;2.72;;
15629;SDS011;7914;50.842;0.166;2022-08-26T11:00:02;4.25;;;2.80;;
15629;SDS011;7914;50.842;0.166;2022-08-26T11:03:01;5.28;;;2.45;;
15629;SDS011;7914;50.842;0.166;2022-08-26T11:05:33;5.00;;;2.40;;
15629;SDS011;7914;50.842;0.166;2022-08-26T11:11:09;7.18;;;3.13;;
15629;SDS011;7914;50.842;0.166;2022-08-26T11:13:57;3.55;;;2.20;;
15629;SDS011;7914;50.842;0.166;2022-08-26T11:16:43;3.20;;;2.42;;
15629;SDS011;7914;50.842;0.166;2022-08-26T11:19:12;3.75;;;2.55;;
15629;SDS011;7914;50.842;0.166;2022-08-26T11:24:43;5.18;;;2.70;;
15629;SDS011;7914;50.842;0.166;2022-08-26T11:27:56;5.93;;;2.65;;
15629;SDS011;7914;50.842;0.166;2022-08-26T11:30:04;3.08;;;2.33;;
15629;SDS011;7914;50.842;0.166;2022-08-26T11:32:57;5.28;;;4.78;;
15629;SDS011;7914;50.842;0.166;2022-08-26T11:38:19;8.65;;;6.85;;
15629;SDS011;7914;50.842;0.166;2022-08-26T11:40:56;7.07;;;6.43;;
15629;SDS011;7914;50.842;0.166;2022-08-26T11:43:30;7.88;;;7.13;;
15629;SDS011;7914;50.842;0.166;2022-08-26T11:45:58;7.13;;;6.47;;
15629;SDS011;7914;50.842;0.166;2022-08-26T11:48:33;7.35;;;5.93;;
15629;SDS011;7914;50.842;0.166;2022-08-26T11:51:11;7.40;;;5.88;;
15629;SDS011;7914;50.842;0.166;2022-08-26T11:53:44;5.28;;;4.78;;
15629;SDS011;7914;50.842;0.166;2022-08-26T11:56:32;7.65;;;5.55;;
15629;SDS011;7914;50.842;0.166;2022-08-26T11:58:59;5.65;;;5.03;;
15629;SDS011;7914;50.842;0.166;2022-08-26T12:01:31;5.03;;;4.50;;
15629;SDS011;7914;50.842;0.166;2022-08-26T12:04:03;6.07;;;5.47;;
15629;SDS011;7914;50.842;0.166;2022-08-26T12:06:34;5.93;;;5.38;;
15629;SDS011;7914;50.842;0.166;2022-08-26T12:09:04;6.55;;;5.80;;
15629;SDS011;7914;50.842;0.166;2022-08-26T12:11:35;6.43;;;5.72;;
15629;SDS011;7914;50.842;0.166;2022-08-26T12:14:06;7.43;;;5.95;;
15629;SDS011;7914;50.842;0.166;2022-08-26T12:16:39;6.72;;;5.40;;
15629;SDS011;7914;50.842;0.166;2022-08-26T12:19:24;7.80;;;5.40;;
15629;SDS011;7914;50.842;0.166;2022-08-26T12:22:03;6.65;;;5.95;;
15629;SDS011;7914;50.842;0.166;2022-08-26T12:30:04;8.38;;;7.68;;
15629;SDS011;7914;50.842;0.166;2022-08-26T12:32:33;7.97;;;7.22;;
15629;SDS011;7914;50.842;0.166;2022-08-26T12:35:00;8.30;;;6.85;;
15629;SDS011;7914;50.842;0.166;2022-08-26T12:37:28;7.97;;;7.00;;
15629;SDS011;7914;50.842;0.166;2022-08-26T12:40:23;7.00;;;6.40;;
15629;SDS011;7914;50.842;0.166;2022-08-26T12:42:48;7.63;;;5.53;;
15629;SDS011;7914;50.842;0.166;2022-08-26T12:45:24;8.30;;;7.50;;
15629;SDS011;7914;50.842;0.166;2022-08-26T12:47:53;8.57;;;7.38;;
15629;SDS011;7914;50.842;0.166;2022-08-26T12:50:23;10.43;;;8.05;;
15629;SDS011;7914;50.842;0.166;2022-08-26T12:55:40;7.97;;;7.28;;
15629;SDS011;7914;50.842;0.166;2022-08-26T12:58:20;9.85;;;8.95;;
15629;SDS011;7914;50.842;0.166;2022-08-26T13:00:52;8.23;;;7.35;;
15629;SDS011;7914;50.842;0.166;2022-08-26T13:03:41;11.27;;;7.60;;
15629;SDS011;7914;50.842;0.166;2022-08-26T13:08:39;9.00;;;8.20;;
15629;SDS011;7914;50.842;0.166;2022-08-26T13:11:27;10.95;;;9.90;;
15629;SDS011;7914;50.842;0.166;2022-08-26T13:16:21;7.22;;;6.53;;
15629;SDS011;7914;50.842;0.166;2022-08-26T13:18:48;9.05;;;6.22;;
15629;SDS011;7914;50.842;0.166;2022-08-26T13:21:16;7.50;;;6.80;;
15629;SDS011;7914;50.842;0.166;2022-08-26T13:23:45;7.65;;;6.80;;
15629;SDS011;7914;50.842;0.166;2022-08-26T13:26:12;9.98;;;8.25;;
15629;SDS011;7914;50.842;0.166;2022-08-26T13:28:38;7.45;;;6.43;;
15629;SDS011;7914;50.842;0.166;2022-08-26T13:31:04;9.73;;;8.73;;
15629;SDS011;7914;50.842;0.166;2022-08-26T13:33:31;10.30;;;8.60;;
15629;SDS011;7914;50.842;0.166;2022-08-26T13:35:57;8.02;;;6.53;;
15629;SDS011;7914;50.842;0.166;2022-08-26T13:38:24;9.45;;;8.43;;
15629;SDS011;7914;50.842;0.166;2022-08-26T13:40:56;9.07;;;8.18;;
15629;SDS011;7914;50.842;0.166;2022-08-26T13:43:27;8.40;;;7.68;;
15629;SDS011;7914;50.842;0.166;2022-08-26T13:45:53;9.30;;;7.53;;
15629;SDS011;7914;50.842;0.166;2022-08-26T13:48:19;8.93;;;8.13;;
15629;SDS011;7914;50.842;0.166;2022-08-26T13:50:45;8.10;;;7.38;;
15629;SDS011;7914;50.842;0.166;2022-08-26T13:53:11;7.53;;;6.45;;
15629;SDS011;7914;50.842;0.166;2022-08-26T13:55:39;8.75;;;7.88;;
15629;SDS011;7914;50.842;0.166;2022-08-26T13:58:05;9.00;;;8.15;;
15629;SDS011;7914;50.842;0.166;2022-08-26T14:00:32;9.93;;;6.25;;
15629;SDS011;7914;50.842;0.166;2022-08-26T14:02:58;7.65;;;6.53;;
15629;SDS011;7914;50.842;0.166;2022-08-26T14:05:25;7.18;;;6.55;;
15629;SDS011;7914;50.842;0.166;2022-08-26T14:07:52;9.15;;;8.35;;
15629;SDS011;7914;50.842;0.166;2022-08-26T14:10:18;7.90;;;6.70;;
15629;SDS011;7914;50.842;0.166;2022-08-26T14:12:44;6.47;;;5.88;;
15629;SDS011;7914;50.842;0.166;2022-08-26T14:15:10;6.55;;;5.50;;
15629;SDS011;7914;50.842;0.166;2022-08-26T14:17:37;8.52;;;5.10;;
15629;SDS011;7914;50.842;0.166;2022-08-26T14:20:04;7.60;;;5.10;;
15629;SDS011;7914;50.842;0.166;2022-08-26T14:22:33;5.82;;;4.60;;
15629;SDS011;7914;50.842;0.166;2022-08-26T14:24:58;4.82;;;4.25;;
15629;SDS011;7914;50.842;0.166;2022-08-26T14:27:24;7.13;;;5.45;;
15629;SDS011;7914;50.842;0.166;2022-08-26T14:29:50;4.95;;;4.43;;
15629;SDS011;7914;50.842;0.166;2022-08-26T14:32:26;4.95;;;4.22;;
15629;SDS011;7914;50.842;0.166;2022-08-26T14:34:53;4.38;;;3.60;;
15629;SDS011;7914;50.842;0.166;2022-08-26T14:37:19;5.45;;;4.45;;
15629;SDS011;7914;50.842;0.166;2022-08-26T14:39:46;4.93;;;4.43;;
15629;SDS011;7914;50.842;0.166;2022-08-26T14:42:12;5.10;;;4.20;;
15629;SDS011;7914;50.842;0.166;2022-08-26T14:44:39;5.82;;;5.20;;
15629;SDS011;7914;50.842;0.166;2022-08-26T14:47:08;6.45;;;4.55;;
15629;SDS011;7914;50.842;0.166;2022-08-26T14:49:34;5.32;;;4.00;;
15629;SDS011;7914;50.842;0.166;2022-08-26T14:52:00;5.72;;;3.40;;
15629;SDS011;7914;50.842;0.166;2022-08-26T14:54:26;4.22;;;3.72;;
15629;SDS011;7914;50.842;0.166;2022-08-26T14:56:54;11.00;;;3.35;;
15629;SDS011;7914;50.842;0.166;2022-08-26T14:59:29;6.00;;;3.60;;
15629;SDS011;7914;50.842;0.166;2022-08-26T15:02:00;2.80;;;2.60;;
15629;SDS011;7914;50.842;0.166;2022-08-26T15:04:27;3.53;;;2.50;;
15629;SDS011;7914;50.842;0.166;2022-08-26T15:06:53;3.55;;;3.25;;
15629;SDS011;7914;50.842;0.166;2022-08-26T15:09:20;3.88;;;2.85;;
15629;SDS011;7914;50.842;0.166;2022-08-26T15:11:47;3.05;;;2.75;;
15629;SDS011;7914;50.842;0.166;2022-08-26T15:14:13;5.72;;;3.00;;
15629;SDS011;7914;50.842;0.166;2022-08-26T15:16:39;4.97;;;2.80;;
15629;SDS011;7914;50.842;0.166;2022-08-26T15:19:05;5.00;;;2.92;;
15629;SDS011;7914;50.842;0.166;2022-08-26T15:21:32;3.30;;;2.75;;
15629;SDS011;7914;50.842;0.166;2022-08-26T15:23:59;5.97;;;3.08;;
15629;SDS011;7914;50.842;0.166;2022-08-26T15:26:26;6.47;;;2.72;;
15629;SDS011;7914;50.842;0.166;2022-08-26T15:28:53;5.80;;;2.50;;
15629;SDS011;7914;50.842;0.166;2022-08-26T15:31:23;4.28;;;2.40;;
15629;SDS011;7914;50.842;0.166;2022-08-26T15:33:59;3.28;;;2.33;;
15629;SDS011;7914;50.842;0.166;2022-08-26T15:36:27;5.13;;;2.47;;
15629;SDS011;7914;50.842;0.166;2022-08-26T15:38:55;3.90;;;2.38;;
15629;SDS011;7914;50.842;0.166;2022-08-26T15:41:22;3.08;;;2.00;;
15629;SDS011;7914;50.842;0.166;2022-08-26T15:43:48;3.65;;;1.75;;
15629;SDS011;7914;50.842;0.166;2022-08-26T15:46:15;4.53;;;1.88;;
15629;SDS011;7914;50.842;0.166;2022-08-26T15:48:41;6.18;;;2.17;;
15629;SDS011;7914;50.842;0.166;2022-08-26T15:51:07;4.05;;;2.00;;